sensor_id;sensor_type;location;lat;lon;timestamp;P1;durP1;ratioP1;P2;durP2;ratioP2
69334;SDS011;56477;52.742;15.242;2023-05-16T00:00:24;13.87;;;8.17;;
69334;SDS011;56477;52.742;15.242;2023-05-16T00:03:11;15.68;;;8.02;;
69334;SDS011;56477;52.742;15.242;2023-05-16T00:05:36;14.10;;;7.97;;
69334;SDS011;56477;52.742;15.242;2023-05-16T00:08:03;13.77;;;8.23;;
69334;SDS011;56477;52.742;15.242;2023-05-16T00:10:30;12.50;;;8.27;;
69334;SDS011;56477;52.742;15.242;2023-05-16T00:12:56;16.15;;;8.35;;
69334;SDS011;56477;52.742;15.242;2023-05-16T00:15:22;14.00;;;8.45;;
69334;SDS011;56477;52.742;15.242;2023-05-16T00:17:49;14.68;;;9.20;;
69334;SDS011;56477;52.742;15.242;2023-05-16T00:20:16;12.37;;;6.10;;
69334;SDS011;56477;52.742;15.242;2023-05-16T00:22:43;12.50;;;7.95;;
69334;SDS011;56477;52.742;15.242;2023-05-16T00:25:10;13.75;;;8.68;;
69334;SDS011;56477;52.742;15.242;2023-05-16T00:27:36;13.57;;;8.95;;
69334;SDS011;56477;52.742;15.242;2023-05-16T00:30:02;13.52;;;8.88;;
69334;SDS011;56477;52.742;15.242;2023-05-16T00:32:30;17.00;;;8.53;;
69334;SDS011;56477;52.742;15.242;2023-05-16T00:34:56;16.42;;;8.32;;
69334;SDS011;56477;52.742;15.242;2023-05-16T00:37:22;14.45;;;8.70;;
69334;SDS011;56477;52.742;15.242;2023-05-16T00:39:48;14.88;;;8.85;;
69334;SDS011;56477;52.742;15.242;2023-05-16T00:42:17;14.90;;;9.33;;
69334;SDS011;56477;52.742;15.242;2023-05-16T00:44:44;15.05;;;8.73;;
69334;SDS011;56477;52.742;15.242;2023-05-16T00:47:10;13.90;;;8.60;;
69334;SDS011;56477;52.742;15.242;2023-05-16T00:49:36;13.52;;;8.07;;
69334;SDS011;56477;52.742;15.242;2023-05-16T00:52:02;15.47;;;8.97;;
69334;SDS011;56477;52.742;15.242;2023-05-16T00:54:29;17.02;;;9.80;;
69334;SDS011;56477;52.742;15.242;2023-05-16T00:56:56;15.48;;;9.32;;
69334;SDS011;56477;52.742;15.242;2023-05-16T00:59:22;14.10;;;8.75;;
69334;SDS011;56477;52.742;15.242;2023-05-16T01:01:49;18.90;;;9.75;;
69334;SDS011;56477;52.742;15.242;2023-05-16T01:04:16;15.97;;;9.70;;
69334;SDS011;56477;52.742;15.242;2023-05-16T01:06:43;16.10;;;8.70;;
69334;SDS011;56477;52.742;15.242;2023-05-16T01:09:09;16.70;;;10.23;;
69334;SDS011;56477;52.742;15.242;2023-05-16T01:17:04;14.40;;;9.57;;
69334;SDS011;56477;52.742;15.242;2023-05-16T01:22:35;17.52;;;9.02;;
69334;SDS011;56477;52.742;15.242;2023-05-16T01:25:25;15.70;;;9.93;;
69334;SDS011;56477;52.742;15.242;2023-05-16T01:28:02;17.95;;;10.35;;
69334;SDS011;56477;52.742;15.242;2023-05-16T01:30:33;17.43;;;9.97;;
69334;SDS011;56477;52.742;15.242;2023-05-16T01:33:01;17.38;;;9.95;;
69334;SDS011;56477;52.742;15.242;2023-05-16T01:35:26;18.20;;;10.23;;
69334;SDS011;56477;52.742;15.242;2023-05-16T01:41:01;19.53;;;9.90;;
69334;SDS011;56477;52.742;15.242;2023-05-16T01:43:51;20.67;;;10.05;;
69334;SDS011;56477;52.742;15.242;2023-05-16T01:46:24;16.08;;;9.40;;
69334;SDS011;56477;52.742;15.242;2023-05-16T01:51:41;17.55;;;10.77;;
69334;SDS011;56477;52.742;15.242;2023-05-16T01:54:14;20.27;;;10.53;;
69334;SDS011;56477;52.742;15.242;2023-05-16T01:56:45;19.02;;;10.50;;
69334;SDS011;56477;52.742;15.242;2023-05-16T01:59:17;18.10;;;11.00;;
69334;SDS011;56477;52.742;15.242;2023-05-16T02:01:46;18.08;;;10.70;;
69334;SDS011;56477;52.742;15.242;2023-05-16T02:04:12;19.00;;;11.35;;
69334;SDS011;56477;52.742;15.242;2023-05-16T02:06:39;18.40;;;10.87;;
69334;SDS011;56477;52.742;15.242;2023-05-16T02:09:06;17.05;;;10.32;;
69334;SDS011;56477;52.742;15.242;2023-05-16T02:11:32;19.67;;;11.00;;
69334;SDS011;56477;52.742;15.242;2023-05-16T02:13:58;18.45;;;10.82;;
69334;SDS011;56477;52.742;15.242;2023-05-16T02:16:24;19.07;;;10.83;;
69334;SDS011;56477;52.742;15.242;2023-05-16T02:18:50;18.00;;;10.82;;
69334;SDS011;56477;52.742;15.242;2023-05-16T02:21:16;20.38;;;11.13;;
69334;SDS011;56477;52.742;15.242;2023-05-16T02:23:42;20.75;;;11.32;;
69334;SDS011;56477;52.742;15.242;2023-05-16T02:26:08;18.13;;;10.57;;
69334;SDS011;56477;52.742;15.242;2023-05-16T02:28:35;17.95;;;10.43;;
69334;SDS011;56477;52.742;15.242;2023-05-16T02:31:00;19.08;;;11.13;;
69334;SDS011;56477;52.742;15.242;2023-05-16T02:33:27;18.42;;;10.88;;
69334;SDS011;56477;52.742;15.242;2023-05-16T02:35:53;16.73;;;9.77;;
69334;SDS011;56477;52.742;15.242;2023-05-16T02:38:20;18.17;;;10.85;;
69334;SDS011;56477;52.742;15.242;2023-05-16T02:40:46;17.48;;;10.98;;
69334;SDS011;56477;52.742;15.242;2023-05-16T02:43:13;19.38;;;11.35;;
69334;SDS011;56477;52.742;15.242;2023-05-16T02:45:39;20.30;;;10.90;;
69334;SDS011;56477;52.742;15.242;2023-05-16T02:48:05;19.98;;;11.80;;
69334;SDS011;56477;52.742;15.242;2023-05-16T02:50:32;17.73;;;10.55;;
69334;SDS011;56477;52.742;15.242;2023-05-16T02:52:59;20.15;;;10.70;;
69334;SDS011;56477;52.742;15.242;2023-05-16T02:55:29;18.15;;;10.57;;
69334;SDS011;56477;52.742;15.242;2023-05-16T02:57:55;18.33;;;9.67;;
69334;SDS011;56477;52.742;15.242;2023-05-16T03:00:21;21.63;;;10.70;;
69334;SDS011;56477;52.742;15.242;2023-05-16T03:02:48;17.55;;;9.77;;
69334;SDS011;56477;52.742;15.242;2023-05-16T03:05:13;18.93;;;10.67;;
69334;SDS011;56477;52.742;15.242;2023-05-16T03:07:40;18.40;;;11.20;;
69334;SDS011;56477;52.742;15.242;2023-05-16T03:10:06;22.05;;;11.52;;
69334;SDS011;56477;52.742;15.242;2023-05-16T03:12:32;18.60;;;11.73;;
69334;SDS011;56477;52.742;15.242;2023-05-16T03:14:58;19.57;;;11.03;;
69334;SDS011;56477;52.742;15.242;2023-05-16T03:17:24;20.33;;;11.20;;
69334;SDS011;56477;52.742;15.242;2023-05-16T03:19:50;18.42;;;10.55;;
69334;SDS011;56477;52.742;15.242;2023-05-16T03:22:16;17.83;;;11.23;;
69334;SDS011;56477;52.742;15.242;2023-05-16T03:24:42;18.73;;;11.07;;
69334;SDS011;56477;52.742;15.242;2023-05-16T03:27:08;19.48;;;10.82;;
69334;SDS011;56477;52.742;15.242;2023-05-16T03:29:34;18.63;;;11.07;;
69334;SDS011;56477;52.742;15.242;2023-05-16T03:32:00;20.03;;;11.67;;
69334;SDS011;56477;52.742;15.242;2023-05-16T03:34:26;20.20;;;11.68;;
69334;SDS011;56477;52.742;15.242;2023-05-16T03:36:52;19.58;;;11.70;;
69334;SDS011;56477;52.742;15.242;2023-05-16T03:39:18;19.13;;;11.13;;
69334;SDS011;56477;52.742;15.242;2023-05-16T03:41:44;17.13;;;10.47;;
69334;SDS011;56477;52.742;15.242;2023-05-16T03:44:10;18.55;;;11.02;;
69334;SDS011;56477;52.742;15.242;2023-05-16T03:46:36;18.98;;;10.90;;
69334;SDS011;56477;52.742;15.242;2023-05-16T03:49:02;19.43;;;11.80;;
69334;SDS011;56477;52.742;15.242;2023-05-16T03:51:29;18.67;;;11.23;;
69334;SDS011;56477;52.742;15.242;2023-05-16T03:53:54;19.55;;;11.38;;
69334;SDS011;56477;52.742;15.242;2023-05-16T03:56:21;18.98;;;12.05;;
69334;SDS011;56477;52.742;15.242;2023-05-16T03:58:47;20.17;;;11.83;;
69334;SDS011;56477;52.742;15.242;2023-05-16T04:01:13;20.80;;;10.80;;
69334;SDS011;56477;52.742;15.242;2023-05-16T04:03:39;18.83;;;11.55;;
69334;SDS011;56477;52.742;15.242;2023-05-16T04:06:05;19.85;;;11.60;;
69334;SDS011;56477;52.742;15.242;2023-05-16T04:08:32;19.35;;;11.27;;
69334;SDS011;56477;52.742;15.242;2023-05-16T04:10:58;21.60;;;11.85;;
69334;SDS011;56477;52.742;15.242;2023-05-16T04:13:24;19.03;;;11.30;;
69334;SDS011;56477;52.742;15.242;2023-05-16T04:15:50;19.88;;;11.38;;
69334;SDS011;56477;52.742;15.242;2023-05-16T04:18:17;21.92;;;11.85;;
69334;SDS011;56477;52.742;15.242;2023-05-16T04:20:43;20.25;;;12.05;;
69334;SDS011;56477;52.742;15.242;2023-05-16T04:23:09;18.00;;;11.50;;
69334;SDS011;56477;52.742;15.242;2023-05-16T04:25:39;18.88;;;11.27;;
69334;SDS011;56477;52.742;15.242;2023-05-16T04:28:05;18.98;;;10.93;;
69334;SDS011;56477;52.742;15.242;2023-05-16T04:30:32;19.05;;;10.70;;
69334;SDS011;56477;52.742;15.242;2023-05-16T04:32:58;32.50;;;19.47;;
69334;SDS011;56477;52.742;15.242;2023-05-16T04:35:25;36.30;;;15.50;;
69334;SDS011;56477;52.742;15.242;2023-05-16T04:37:52;20.02;;;12.18;;
69334;SDS011;56477;52.742;15.242;2023-05-16T04:40:18;20.95;;;11.73;;
69334;SDS011;56477;52.742;15.242;2023-05-16T04:42:44;19.97;;;11.53;;
69334;SDS011;56477;52.742;15.242;2023-05-16T04:45:11;20.98;;;11.23;;
69334;SDS011;56477;52.742;15.242;2023-05-16T04:47:38;20.02;;;11.52;;
69334;SDS011;56477;52.742;15.242;2023-05-16T04:50:05;19.33;;;11.55;;
69334;SDS011;56477;52.742;15.242;2023-05-16T04:52:33;21.40;;;12.43;;
69334;SDS011;56477;52.742;15.242;2023-05-16T04:54:59;19.25;;;12.20;;
69334;SDS011;56477;52.742;15.242;2023-05-16T04:57:26;22.05;;;11.93;;
69334;SDS011;56477;52.742;15.242;2023-05-16T04:59:52;23.15;;;12.70;;
69334;SDS011;56477;52.742;15.242;2023-05-16T05:02:18;21.03;;;12.43;;
69334;SDS011;56477;52.742;15.242;2023-05-16T05:04:44;18.58;;;11.35;;
69334;SDS011;56477;52.742;15.242;2023-05-16T05:07:11;19.55;;;12.80;;
69334;SDS011;56477;52.742;15.242;2023-05-16T05:09:37;21.45;;;12.30;;
69334;SDS011;56477;52.742;15.242;2023-05-16T05:12:04;22.42;;;12.98;;
69334;SDS011;56477;52.742;15.242;2023-05-16T05:14:30;19.83;;;12.53;;
69334;SDS011;56477;52.742;15.242;2023-05-16T05:16:56;20.75;;;12.55;;
69334;SDS011;56477;52.742;15.242;2023-05-16T05:19:22;20.08;;;12.23;;
69334;SDS011;56477;52.742;15.242;2023-05-16T05:21:48;21.63;;;12.33;;
69334;SDS011;56477;52.742;15.242;2023-05-16T05:24:14;20.95;;;12.05;;
69334;SDS011;56477;52.742;15.242;2023-05-16T05:26:40;20.38;;;12.80;;
69334;SDS011;56477;52.742;15.242;2023-05-16T05:29:06;20.77;;;12.40;;
69334;SDS011;56477;52.742;15.242;2023-05-16T05:31:32;18.27;;;12.07;;
69334;SDS011;56477;52.742;15.242;2023-05-16T05:33:59;18.15;;;10.07;;
69334;SDS011;56477;52.742;15.242;2023-05-16T05:36:25;20.95;;;12.32;;
69334;SDS011;56477;52.742;15.242;2023-05-16T05:38:51;13.90;;;7.50;;
69334;SDS011;56477;52.742;15.242;2023-05-16T05:41:17;19.50;;;12.13;;
69334;SDS011;56477;52.742;15.242;2023-05-16T05:43:43;24.60;;;13.35;;
69334;SDS011;56477;52.742;15.242;2023-05-16T05:46:09;20.92;;;14.25;;
69334;SDS011;56477;52.742;15.242;2023-05-16T05:48:35;23.50;;;14.35;;
69334;SDS011;56477;52.742;15.242;2023-05-16T05:51:01;22.00;;;13.87;;
69334;SDS011;56477;52.742;15.242;2023-05-16T05:53:27;23.48;;;12.05;;
69334;SDS011;56477;52.742;15.242;2023-05-16T05:55:53;20.27;;;11.57;;
69334;SDS011;56477;52.742;15.242;2023-05-16T05:58:20;29.40;;;16.08;;
69334;SDS011;56477;52.742;15.242;2023-05-16T06:00:46;29.85;;;16.85;;
69334;SDS011;56477;52.742;15.242;2023-05-16T06:03:12;26.70;;;13.77;;
69334;SDS011;56477;52.742;15.242;2023-05-16T06:05:38;28.85;;;15.20;;
69334;SDS011;56477;52.742;15.242;2023-05-16T06:08:05;28.95;;;16.98;;
69334;SDS011;56477;52.742;15.242;2023-05-16T06:10:30;36.90;;;17.38;;
69334;SDS011;56477;52.742;15.242;2023-05-16T06:12:57;29.63;;;16.40;;
69334;SDS011;56477;52.742;15.242;2023-05-16T06:15:23;32.25;;;15.93;;
69334;SDS011;56477;52.742;15.242;2023-05-16T06:17:50;25.08;;;13.77;;
69334;SDS011;56477;52.742;15.242;2023-05-16T06:20:15;36.20;;;18.07;;
69334;SDS011;56477;52.742;15.242;2023-05-16T06:22:42;26.77;;;13.43;;
69334;SDS011;56477;52.742;15.242;2023-05-16T06:25:07;39.95;;;19.17;;
69334;SDS011;56477;52.742;15.242;2023-05-16T06:27:34;32.10;;;15.52;;
69334;SDS011;56477;52.742;15.242;2023-05-16T06:30:00;37.63;;;18.23;;
69334;SDS011;56477;52.742;15.242;2023-05-16T06:32:26;37.03;;;16.30;;
69334;SDS011;56477;52.742;15.242;2023-05-16T06:34:52;43.00;;;20.00;;
69334;SDS011;56477;52.742;15.242;2023-05-16T06:37:18;40.58;;;19.13;;
69334;SDS011;56477;52.742;15.242;2023-05-16T06:39:44;43.90;;;21.23;;
69334;SDS011;56477;52.742;15.242;2023-05-16T06:42:10;40.42;;;18.02;;
69334;SDS011;56477;52.742;15.242;2023-05-16T06:44:37;44.70;;;21.30;;
69334;SDS011;56477;52.742;15.242;2023-05-16T06:47:03;39.95;;;19.42;;
69334;SDS011;56477;52.742;15.242;2023-05-16T06:49:29;35.78;;;16.23;;
69334;SDS011;56477;52.742;15.242;2023-05-16T06:51:55;33.80;;;17.43;;
69334;SDS011;56477;52.742;15.242;2023-05-16T06:54:21;35.05;;;17.98;;
69334;SDS011;56477;52.742;15.242;2023-05-16T06:56:47;29.63;;;13.88;;
69334;SDS011;56477;52.742;15.242;2023-05-16T06:59:13;35.27;;;19.00;;
69334;SDS011;56477;52.742;15.242;2023-05-16T07:01:39;33.58;;;16.80;;
69334;SDS011;56477;52.742;15.242;2023-05-16T07:04:05;33.22;;;18.55;;
69334;SDS011;56477;52.742;15.242;2023-05-16T07:06:32;37.95;;;18.30;;
69334;SDS011;56477;52.742;15.242;2023-05-16T07:08:58;33.23;;;15.60;;
69334;SDS011;56477;52.742;15.242;2023-05-16T07:11:24;24.17;;;12.77;;
69334;SDS011;56477;52.742;15.242;2023-05-16T07:13:50;22.08;;;11.70;;
69334;SDS011;56477;52.742;15.242;2023-05-16T07:16:16;26.67;;;14.52;;
69334;SDS011;56477;52.742;15.242;2023-05-16T07:18:42;22.60;;;10.70;;
69334;SDS011;56477;52.742;15.242;2023-05-16T07:21:08;19.75;;;9.82;;
69334;SDS011;56477;52.742;15.242;2023-05-16T07:23:34;32.45;;;16.50;;
69334;SDS011;56477;52.742;15.242;2023-05-16T07:26:00;23.10;;;12.00;;
69334;SDS011;56477;52.742;15.242;2023-05-16T07:28:26;28.80;;;15.73;;
69334;SDS011;56477;52.742;15.242;2023-05-16T07:30:52;26.48;;;13.75;;
69334;SDS011;56477;52.742;15.242;2023-05-16T07:33:18;27.30;;;14.20;;
69334;SDS011;56477;52.742;15.242;2023-05-16T07:35:45;22.85;;;12.88;;
69334;SDS011;56477;52.742;15.242;2023-05-16T07:38:11;27.17;;;13.97;;
69334;SDS011;56477;52.742;15.242;2023-05-16T07:40:37;29.02;;;14.65;;
69334;SDS011;56477;52.742;15.242;2023-05-16T07:43:03;26.00;;;14.30;;
69334;SDS011;56477;52.742;15.242;2023-05-16T07:45:29;26.13;;;14.13;;
69334;SDS011;56477;52.742;15.242;2023-05-16T07:47:55;21.30;;;11.30;;
69334;SDS011;56477;52.742;15.242;2023-05-16T07:50:21;15.85;;;9.70;;
69334;SDS011;56477;52.742;15.242;2023-05-16T07:52:47;22.65;;;12.20;;
69334;SDS011;56477;52.742;15.242;2023-05-16T07:55:13;19.20;;;9.93;;
69334;SDS011;56477;52.742;15.242;2023-05-16T07:57:39;15.73;;;6.82;;
69334;SDS011;56477;52.742;15.242;2023-05-16T08:00:05;21.50;;;11.82;;
69334;SDS011;56477;52.742;15.242;2023-05-16T08:02:32;17.65;;;8.77;;
69334;SDS011;56477;52.742;15.242;2023-05-16T08:04:59;21.20;;;12.32;;
69334;SDS011;56477;52.742;15.242;2023-05-16T08:07:24;15.63;;;8.57;;
69334;SDS011;56477;52.742;15.242;2023-05-16T08:09:51;24.27;;;11.63;;
69334;SDS011;56477;52.742;15.242;2023-05-16T08:12:17;19.50;;;10.48;;
69334;SDS011;56477;52.742;15.242;2023-05-16T08:14:43;18.03;;;8.77;;
69334;SDS011;56477;52.742;15.242;2023-05-16T08:17:09;23.67;;;13.10;;
69334;SDS011;56477;52.742;15.242;2023-05-16T08:19:35;21.58;;;11.05;;
69334;SDS011;56477;52.742;15.242;2023-05-16T08:22:01;13.53;;;7.53;;
69334;SDS011;56477;52.742;15.242;2023-05-16T08:24:27;21.42;;;11.75;;
69334;SDS011;56477;52.742;15.242;2023-05-16T08:26:53;23.75;;;11.25;;
69334;SDS011;56477;52.742;15.242;2023-05-16T08:29:19;27.17;;;13.83;;
69334;SDS011;56477;52.742;15.242;2023-05-16T08:31:45;19.05;;;9.20;;
69334;SDS011;56477;52.742;15.242;2023-05-16T08:34:16;25.45;;;12.88;;
69334;SDS011;56477;52.742;15.242;2023-05-16T08:36:46;18.95;;;9.85;;
69334;SDS011;56477;52.742;15.242;2023-05-16T08:39:12;18.73;;;10.83;;
69334;SDS011;56477;52.742;15.242;2023-05-16T08:41:38;22.10;;;11.95;;
69334;SDS011;56477;52.742;15.242;2023-05-16T08:44:05;22.50;;;11.68;;
69334;SDS011;56477;52.742;15.242;2023-05-16T08:46:31;16.50;;;8.13;;
69334;SDS011;56477;52.742;15.242;2023-05-16T08:49:00;21.80;;;10.52;;
69334;SDS011;56477;52.742;15.242;2023-05-16T08:51:31;19.50;;;11.23;;
69334;SDS011;56477;52.742;15.242;2023-05-16T08:54:10;22.85;;;11.57;;
69334;SDS011;56477;52.742;15.242;2023-05-16T08:56:37;16.95;;;10.45;;
69334;SDS011;56477;52.742;15.242;2023-05-16T08:59:05;24.33;;;11.65;;
69334;SDS011;56477;52.742;15.242;2023-05-16T09:01:31;21.88;;;8.82;;
69334;SDS011;56477;52.742;15.242;2023-05-16T09:03:58;19.17;;;8.83;;
69334;SDS011;56477;52.742;15.242;2023-05-16T09:06:25;22.13;;;10.05;;
69334;SDS011;56477;52.742;15.242;2023-05-16T09:08:54;22.00;;;9.98;;
69334;SDS011;56477;52.742;15.242;2023-05-16T09:11:20;17.92;;;8.65;;
69334;SDS011;56477;52.742;15.242;2023-05-16T09:13:47;27.63;;;13.73;;
69334;SDS011;56477;52.742;15.242;2023-05-16T09:16:17;31.10;;;11.47;;
69334;SDS011;56477;52.742;15.242;2023-05-16T09:18:45;25.65;;;12.10;;
69334;SDS011;56477;52.742;15.242;2023-05-16T09:21:18;30.52;;;13.82;;
69334;SDS011;56477;52.742;15.242;2023-05-16T09:23:44;30.70;;;14.35;;
69334;SDS011;56477;52.742;15.242;2023-05-16T09:26:13;16.30;;;8.23;;
69334;SDS011;56477;52.742;15.242;2023-05-16T09:28:40;28.37;;;13.67;;
69334;SDS011;56477;52.742;15.242;2023-05-16T09:31:23;20.20;;;10.30;;
69334;SDS011;56477;52.742;15.242;2023-05-16T09:33:56;23.75;;;12.43;;
69334;SDS011;56477;52.742;15.242;2023-05-16T09:36:22;14.70;;;6.90;;
69334;SDS011;56477;52.742;15.242;2023-05-16T09:38:52;19.30;;;9.50;;
69334;SDS011;56477;52.742;15.242;2023-05-16T09:41:20;24.13;;;10.83;;
69334;SDS011;56477;52.742;15.242;2023-05-16T09:43:46;15.48;;;9.23;;
69334;SDS011;56477;52.742;15.242;2023-05-16T09:46:12;23.52;;;11.35;;
69334;SDS011;56477;52.742;15.242;2023-05-16T09:48:40;25.23;;;12.88;;
69334;SDS011;56477;52.742;15.242;2023-05-16T09:51:09;25.13;;;12.05;;
69334;SDS011;56477;52.742;15.242;2023-05-16T09:53:37;25.30;;;9.57;;
69334;SDS011;56477;52.742;15.242;2023-05-16T09:58:36;30.15;;;12.57;;
69334;SDS011;56477;52.742;15.242;2023-05-16T10:01:04;22.45;;;10.85;;
69334;SDS011;56477;52.742;15.242;2023-05-16T10:03:35;24.67;;;12.15;;
69334;SDS011;56477;52.742;15.242;2023-05-16T10:06:02;24.47;;;10.73;;
69334;SDS011;56477;52.742;15.242;2023-05-16T10:08:30;22.13;;;10.32;;
69334;SDS011;56477;52.742;15.242;2023-05-16T10:11:01;26.98;;;11.15;;
69334;SDS011;56477;52.742;15.242;2023-05-16T10:13:30;20.83;;;9.98;;
69334;SDS011;56477;52.742;15.242;2023-05-16T10:15:58;33.10;;;15.13;;
69334;SDS011;56477;52.742;15.242;2023-05-16T10:18:34;32.40;;;15.20;;
69334;SDS011;56477;52.742;15.242;2023-05-16T10:21:05;29.77;;;14.20;;
69334;SDS011;56477;52.742;15.242;2023-05-16T10:23:34;20.13;;;9.15;;
69334;SDS011;56477;52.742;15.242;2023-05-16T10:26:03;23.48;;;11.02;;
69334;SDS011;56477;52.742;15.242;2023-05-16T10:28:31;23.88;;;11.82;;
69334;SDS011;56477;52.742;15.242;2023-05-16T10:30:57;26.50;;;12.67;;
69334;SDS011;56477;52.742;15.242;2023-05-16T10:33:25;20.90;;;9.45;;
69334;SDS011;56477;52.742;15.242;2023-05-16T10:35:50;22.15;;;10.95;;
69334;SDS011;56477;52.742;15.242;2023-05-16T10:38:17;19.73;;;9.73;;
69334;SDS011;56477;52.742;15.242;2023-05-16T10:40:45;23.23;;;10.13;;
69334;SDS011;56477;52.742;15.242;2023-05-16T10:43:21;18.77;;;7.80;;
69334;SDS011;56477;52.742;15.242;2023-05-16T10:45:58;19.95;;;10.13;;
69334;SDS011;56477;52.742;15.242;2023-05-16T10:48:29;22.50;;;11.20;;
69334;SDS011;56477;52.742;15.242;2023-05-16T10:50:59;20.13;;;9.52;;
69334;SDS011;56477;52.742;15.242;2023-05-16T11:09:05;17.48;;;8.63;;
69334;SDS011;56477;52.742;15.242;2023-05-16T11:11:45;12.07;;;6.43;;
69334;SDS011;56477;52.742;15.242;2023-05-16T11:14:22;16.77;;;8.20;;
69334;SDS011;56477;52.742;15.242;2023-05-16T11:19:32;18.27;;;9.80;;
69334;SDS011;56477;52.742;15.242;2023-05-16T11:24:48;19.20;;;9.07;;
69334;SDS011;56477;52.742;15.242;2023-05-16T11:27:19;18.35;;;8.38;;
69334;SDS011;56477;52.742;15.242;2023-05-16T11:29:47;18.15;;;9.00;;
69334;SDS011;56477;52.742;15.242;2023-05-16T11:32:13;19.67;;;9.10;;
69334;SDS011;56477;52.742;15.242;2023-05-16T11:34:44;19.92;;;9.18;;
69334;SDS011;56477;52.742;15.242;2023-05-16T11:37:12;17.67;;;7.85;;
69334;SDS011;56477;52.742;15.242;2023-05-16T11:39:40;14.10;;;5.88;;
69334;SDS011;56477;52.742;15.242;2023-05-16T11:42:06;17.25;;;8.55;;
69334;SDS011;56477;52.742;15.242;2023-05-16T11:44:32;24.60;;;10.67;;
69334;SDS011;56477;52.742;15.242;2023-05-16T11:46:58;22.02;;;9.68;;
69334;SDS011;56477;52.742;15.242;2023-05-16T11:49:26;19.42;;;7.80;;
69334;SDS011;56477;52.742;15.242;2023-05-16T11:51:54;18.25;;;8.73;;
69334;SDS011;56477;52.742;15.242;2023-05-16T11:54:22;21.90;;;9.80;;
69334;SDS011;56477;52.742;15.242;2023-05-16T11:56:49;18.83;;;9.40;;
69334;SDS011;56477;52.742;15.242;2023-05-16T11:59:16;21.15;;;9.35;;
69334;SDS011;56477;52.742;15.242;2023-05-16T12:01:43;20.60;;;9.25;;
69334;SDS011;56477;52.742;15.242;2023-05-16T12:04:09;19.40;;;9.20;;
69334;SDS011;56477;52.742;15.242;2023-05-16T12:06:37;16.97;;;8.90;;
69334;SDS011;56477;52.742;15.242;2023-05-16T12:09:04;18.75;;;9.23;;
69334;SDS011;56477;52.742;15.242;2023-05-16T12:11:38;17.15;;;7.03;;
69334;SDS011;56477;52.742;15.242;2023-05-16T12:14:09;13.95;;;7.47;;
69334;SDS011;56477;52.742;15.242;2023-05-16T12:16:36;17.40;;;7.72;;
69334;SDS011;56477;52.742;15.242;2023-05-16T12:19:04;13.53;;;5.87;;
69334;SDS011;56477;52.742;15.242;2023-05-16T12:21:31;16.30;;;7.32;;
69334;SDS011;56477;52.742;15.242;2023-05-16T12:23:57;16.05;;;8.07;;
69334;SDS011;56477;52.742;15.242;2023-05-16T12:26:29;14.90;;;7.72;;
69334;SDS011;56477;52.742;15.242;2023-05-16T12:29:01;14.80;;;7.80;;
69334;SDS011;56477;52.742;15.242;2023-05-16T12:31:28;12.07;;;7.07;;
69334;SDS011;56477;52.742;15.242;2023-05-16T12:33:56;15.23;;;7.80;;
69334;SDS011;56477;52.742;15.242;2023-05-16T12:36:23;11.95;;;6.32;;
69334;SDS011;56477;52.742;15.242;2023-05-16T12:38:51;17.80;;;7.35;;
69334;SDS011;56477;52.742;15.242;2023-05-16T12:41:18;12.98;;;6.65;;
69334;SDS011;56477;52.742;15.242;2023-05-16T12:43:46;13.70;;;6.90;;
69334;SDS011;56477;52.742;15.242;2023-05-16T12:46:12;11.75;;;5.93;;
69334;SDS011;56477;52.742;15.242;2023-05-16T12:48:39;12.45;;;6.07;;
69334;SDS011;56477;52.742;15.242;2023-05-16T12:51:08;10.40;;;5.43;;
69334;SDS011;56477;52.742;15.242;2023-05-16T12:53:42;15.32;;;7.03;;
69334;SDS011;56477;52.742;15.242;2023-05-16T12:56:10;10.23;;;5.43;;
69334;SDS011;56477;52.742;15.242;2023-05-16T12:58:37;15.32;;;6.13;;
69334;SDS011;56477;52.742;15.242;2023-05-16T13:01:04;13.10;;;6.35;;
69334;SDS011;56477;52.742;15.242;2023-05-16T13:03:30;16.35;;;6.60;;
69334;SDS011;56477;52.742;15.242;2023-05-16T13:05:57;15.00;;;7.28;;
69334;SDS011;56477;52.742;15.242;2023-05-16T13:08:25;14.40;;;7.43;;
69334;SDS011;56477;52.742;15.242;2023-05-16T13:10:51;11.75;;;5.82;;
69334;SDS011;56477;52.742;15.242;2023-05-16T13:13:18;16.98;;;7.00;;
69334;SDS011;56477;52.742;15.242;2023-05-16T13:15:44;10.10;;;5.18;;
69334;SDS011;56477;52.742;15.242;2023-05-16T13:18:10;13.73;;;6.00;;
69334;SDS011;56477;52.742;15.242;2023-05-16T13:20:36;10.27;;;5.47;;
69334;SDS011;56477;52.742;15.242;2023-05-16T13:23:03;14.68;;;6.53;;
69334;SDS011;56477;52.742;15.242;2023-05-16T13:25:32;11.40;;;5.75;;
69334;SDS011;56477;52.742;15.242;2023-05-16T13:27:58;13.53;;;7.67;;
69334;SDS011;56477;52.742;15.242;2023-05-16T13:30:24;13.00;;;5.85;;
69334;SDS011;56477;52.742;15.242;2023-05-16T13:32:51;12.98;;;6.47;;
69334;SDS011;56477;52.742;15.242;2023-05-16T13:35:17;15.27;;;6.85;;
69334;SDS011;56477;52.742;15.242;2023-05-16T13:37:43;12.97;;;7.00;;
69334;SDS011;56477;52.742;15.242;2023-05-16T13:40:09;14.95;;;6.72;;
69334;SDS011;56477;52.742;15.242;2023-05-16T13:42:36;11.18;;;5.60;;
69334;SDS011;56477;52.742;15.242;2023-05-16T13:45:03;10.60;;;5.55;;
69334;SDS011;56477;52.742;15.242;2023-05-16T13:47:30;13.13;;;6.97;;
69334;SDS011;56477;52.742;15.242;2023-05-16T13:49:57;13.87;;;6.47;;
69334;SDS011;56477;52.742;15.242;2023-05-16T13:52:24;13.73;;;6.05;;
69334;SDS011;56477;52.742;15.242;2023-05-16T13:54:50;12.80;;;7.18;;
69334;SDS011;56477;52.742;15.242;2023-05-16T13:57:16;15.30;;;6.87;;
69334;SDS011;56477;52.742;15.242;2023-05-16T13:59:42;9.90;;;5.68;;
69334;SDS011;56477;52.742;15.242;2023-05-16T14:02:08;13.85;;;6.20;;
69334;SDS011;56477;52.742;15.242;2023-05-16T14:04:34;13.07;;;6.43;;
69334;SDS011;56477;52.742;15.242;2023-05-16T14:07:00;10.07;;;5.30;;
69334;SDS011;56477;52.742;15.242;2023-05-16T14:09:26;12.18;;;6.32;;
69334;SDS011;56477;52.742;15.242;2023-05-16T14:11:52;11.18;;;6.20;;
69334;SDS011;56477;52.742;15.242;2023-05-16T14:14:18;9.75;;;4.75;;
69334;SDS011;56477;52.742;15.242;2023-05-16T14:16:44;10.27;;;5.57;;
69334;SDS011;56477;52.742;15.242;2023-05-16T14:19:10;10.75;;;5.90;;
69334;SDS011;56477;52.742;15.242;2023-05-16T14:21:37;12.98;;;5.53;;
69334;SDS011;56477;52.742;15.242;2023-05-16T14:24:03;14.38;;;5.47;;
69334;SDS011;56477;52.742;15.242;2023-05-16T14:26:29;11.43;;;5.23;;
69334;SDS011;56477;52.742;15.242;2023-05-16T14:28:57;8.40;;;4.45;;
69334;SDS011;56477;52.742;15.242;2023-05-16T14:31:22;11.60;;;4.68;;
69334;SDS011;56477;52.742;15.242;2023-05-16T14:33:48;9.10;;;4.68;;
69334;SDS011;56477;52.742;15.242;2023-05-16T14:36:14;8.33;;;3.17;;
69334;SDS011;56477;52.742;15.242;2023-05-16T14:38:41;11.80;;;3.80;;
69334;SDS011;56477;52.742;15.242;2023-05-16T14:41:07;8.93;;;3.08;;
69334;SDS011;56477;52.742;15.242;2023-05-16T14:43:33;10.15;;;3.53;;
69334;SDS011;56477;52.742;15.242;2023-05-16T14:45:59;10.27;;;3.73;;
69334;SDS011;56477;52.742;15.242;2023-05-16T14:48:25;7.05;;;3.22;;
69334;SDS011;56477;52.742;15.242;2023-05-16T14:50:51;6.20;;;2.95;;